createdAt,value
2022-08-07T00:03:02.780Z,101105.25
2022-08-07T00:06:33.084Z,101103.75
2022-08-07T00:10:19.365Z,101105.75
2022-08-07T00:13:40.523Z,101102.50
2022-08-07T00:17:06.827Z,101106.19
2022-08-07T00:20:30.013Z,101103.06
2022-08-07T00:23:57.489Z,101109.50
2022-08-07T00:27:19.755Z,101110.66
2022-08-07T00:30:44.698Z,101121.28
2022-08-07T00:34:09.165Z,101118.00
2022-08-07T00:37:48.155Z,101116.34
2022-08-07T00:41:14.644Z,101109.88
2022-08-07T00:44:41.536Z,101124.63
2022-08-07T00:48:09.550Z,101124.75
2022-08-07T00:51:57.348Z,101119.94
2022-08-07T00:55:17.320Z,101129.44
2022-08-07T00:58:49.745Z,101121.63
2022-08-07T01:02:14.039Z,101127.84
2022-08-07T01:05:53.602Z,101133.22
2022-08-07T01:10:02.414Z,101134.28
2022-08-07T01:12:58.373Z,101132.84
2022-08-07T01:16:30.324Z,101131.34
2022-08-07T01:19:55.242Z,101134.88
2022-08-07T01:23:19.535Z,101134.13
2022-08-07T01:26:57.114Z,101140.44
2022-08-07T01:30:20.458Z,101131.00
2022-08-07T01:33:55.147Z,101139.00
2022-08-07T01:37:18.996Z,101136.56
2022-08-07T01:40:44.946Z,101140.28
2022-08-07T01:44:10.904Z,101133.66
2022-08-07T01:48:19.248Z,101135.56
2022-08-07T01:52:00.964Z,101151.00
2022-08-07T01:55:03.060Z,101145.25
2022-08-07T01:58:33.895Z,101156.38
2022-08-07T02:02:06.330Z,101139.38
2022-08-07T02:05:47.956Z,101150.53
2022-08-07T02:09:51.976Z,101156.50
2022-08-07T02:13:04.651Z,101162.72
2022-08-07T02:16:33.207Z,101150.78
2022-08-07T02:20:06.625Z,101160.97
2022-08-07T02:23:35.968Z,101168.91
2022-08-07T02:27:01.258Z,101164.69
2022-08-07T02:30:25.567Z,101162.91
2022-08-07T02:34:01.805Z,101125.31
2022-08-07T02:37:27.654Z,101165.56
2022-08-07T02:40:58.407Z,101168.19
2022-08-07T02:44:22.230Z,101170.81
2022-08-07T02:47:49.619Z,101161.25
2022-08-07T02:51:42.206Z,101167.34
2022-08-07T02:55:03.791Z,101167.22
2022-08-07T02:58:27.465Z,101171.53
2022-08-07T03:01:52.227Z,101167.16
2022-08-07T03:05:20.796Z,101173.97
2022-08-07T03:08:47.577Z,101186.03
2022-08-07T03:12:16.136Z,101184.09
2022-08-07T03:15:47.704Z,101188.22
2022-08-07T03:19:18.779Z,101181.03
2022-08-07T03:22:43.964Z,101191.06
2022-08-07T03:26:23.381Z,101194.63
2022-08-07T03:29:49.595Z,101189.38
2022-08-07T03:33:15.127Z,101188.28
2022-08-07T03:36:39.904Z,101205.59
2022-08-07T03:40:15.268Z,101198.53
2022-08-07T03:43:44.118Z,101206.59
2022-08-07T03:47:20.357Z,101205.63
2022-08-07T03:50:55.796Z,101210.28
2022-08-07T03:54:35.377Z,101212.38
2022-08-07T03:58:32.612Z,101207.91
2022-08-07T04:01:47.814Z,101204.97
2022-08-07T04:05:11.147Z,101211.72
2022-08-07T04:08:33.389Z,101210.53
2022-08-07T04:12:25.747Z,101212.03
2022-08-07T04:15:38.852Z,101219.44
2022-08-07T04:19:12.724Z,101212.16
2022-08-07T04:22:38.321Z,101212.91
2022-08-07T04:26:00.365Z,101208.91
2022-08-07T04:29:25.644Z,101217.19
2022-08-07T04:33:02.695Z,101219.59
2022-08-07T04:36:31.735Z,101212.56
2022-08-07T04:39:54.891Z,101221.34
2022-08-07T04:43:20.275Z,101214.75
2022-08-07T04:47:05.022Z,101229.03
2022-08-07T04:50:38.938Z,101238.84
2022-08-07T04:54:09.397Z,101233.94
2022-08-07T04:58:12.099Z,101244.88
2022-08-07T05:01:30.075Z,101246.72
2022-08-07T05:05:00.139Z,101249.69
2022-08-07T05:08:59.519Z,101249.38
2022-08-07T05:12:15.639Z,101252.22
2022-08-07T05:15:51.324Z,101255.16
2022-08-07T05:19:20.829Z,101259.84
2022-08-07T05:22:56.425Z,101259.25
2022-08-07T05:26:24.160Z,101256.72
2022-08-07T05:29:52.039Z,101259.59
2022-08-07T05:33:18.148Z,101253.16
2022-08-07T05:36:48.962Z,101241.72
2022-08-07T05:40:18.588Z,101257.41
2022-08-07T05:43:43.510Z,101254.53
2022-08-07T05:48:00.163Z,101266.75
2022-08-07T05:51:09.986Z,101263.66
2022-08-07T05:54:53.556Z,101274.31
2022-08-07T05:58:15.935Z,101263.34
2022-08-07T06:01:41.706Z,101260.81
2022-08-07T06:05:10.780Z,101269.41
2022-08-07T06:08:42.432Z,101275.19
2022-08-07T06:12:06.641Z,101270.47
2022-08-07T06:15:39.497Z,101275.72
2022-08-07T06:19:06.476Z,101273.50
2022-08-07T06:22:38.367Z,101269.06
2022-08-07T06:26:02.893Z,101268.97
2022-08-07T06:29:28.603Z,101283.47
2022-08-07T06:32:51.347Z,101267.91
2022-08-07T06:36:14.447Z,101271.06
2022-08-07T06:40:17.766Z,101259.34
2022-08-07T06:43:46.609Z,101278.09
2022-08-07T06:47:21.896Z,101282.47
2022-08-07T06:50:47.628Z,101269.69
2022-08-07T06:55:32.640Z,101284.31
2022-08-07T06:58:00.927Z,101303.28
2022-08-07T07:01:23.579Z,101304.25
2022-08-07T07:04:54.884Z,101310.31
2022-08-07T07:08:25.475Z,101314.53
2022-08-07T07:12:08.388Z,101280.34
2022-08-07T07:15:43.160Z,101300.28
2022-08-07T07:19:33.859Z,101318.41
2022-08-07T07:24:10.247Z,101315.50
2022-08-07T07:26:37.935Z,101308.59
2022-08-07T07:30:09.730Z,101319.38
2022-08-07T07:33:37.492Z,101324.03
2022-08-07T07:37:14.765Z,101323.03
2022-08-07T07:40:45.178Z,101319.16
2022-08-07T07:44:17.697Z,101312.19
2022-08-07T07:47:52.601Z,101297.22
2022-08-07T07:51:19.814Z,101306.44
2022-08-07T07:54:50.468Z,101315.31
2022-08-07T07:58:14.742Z,101315.91
2022-08-07T08:02:03.683Z,101312.25
2022-08-07T08:05:42.633Z,101321.75
2022-08-07T08:09:12.389Z,101295.94
2022-08-07T08:12:52.233Z,101302.28
2022-08-07T08:16:18.239Z,101322.00
2022-08-07T08:20:17.174Z,101325.75
2022-08-07T08:23:42.043Z,101327.19
2022-08-07T08:27:09.704Z,101314.66
2022-08-07T08:30:37.476Z,101324.53
2022-08-07T08:34:07.006Z,101320.91
2022-08-07T08:38:00.275Z,101307.66
2022-08-07T08:41:26.382Z,101315.75
2022-08-07T08:45:15.905Z,101314.47
2022-08-07T08:48:44.939Z,101325.53
2022-08-07T08:52:16.737Z,101319.91
2022-08-07T08:55:55.399Z,101304.66
2022-08-07T08:59:29.000Z,101313.22
2022-08-07T09:03:00.912Z,101325.19
2022-08-07T09:06:40.219Z,101309.06
2022-08-07T09:10:15.998Z,101323.16
2022-08-07T09:13:49.394Z,101320.91
2022-08-07T09:17:20.881Z,101320.75
2022-08-07T09:21:00.383Z,101319.00
2022-08-07T09:25:00.365Z,101306.44
2022-08-07T09:30:02.337Z,101317.63
2022-08-07T09:32:26.300Z,101329.28
2022-08-07T09:36:04.168Z,101330.22
2022-08-07T09:39:53.707Z,101334.06
2022-08-07T09:44:03.185Z,101325.25
2022-08-07T09:47:49.461Z,101324.31
2022-08-07T09:52:10.377Z,101327.72
2022-08-07T09:55:05.820Z,101316.78
2022-08-07T09:59:13.705Z,101301.84
2022-08-07T10:02:55.004Z,101317.44
2022-08-07T10:06:42.127Z,101316.72
2022-08-07T10:10:30.090Z,101309.38
2022-08-07T10:14:07.002Z,101316.78
2022-08-07T10:18:02.630Z,101319.31
2022-08-07T10:22:12.314Z,101305.34
2022-08-07T10:25:43.096Z,101305.16
2022-08-07T10:29:21.429Z,101304.38
2022-08-07T10:33:08.558Z,101306.44
2022-08-07T10:36:55.310Z,101309.56
2022-08-07T10:40:24.194Z,101305.22
2022-08-07T10:44:02.268Z,101294.66
2022-08-07T10:47:52.892Z,101292.25
2022-08-07T10:51:39.518Z,101304.16
2022-08-07T10:55:27.032Z,101317.16
2022-08-07T10:59:08.301Z,101292.84
2022-08-07T11:02:40.154Z,101301.75
2022-08-07T11:06:18.213Z,101289.88
2022-08-07T11:10:07.444Z,101300.97
2022-08-07T11:14:46.352Z,101301.50
2022-08-07T11:17:43.202Z,101301.91
2022-08-07T11:21:14.807Z,101297.03
2022-08-07T11:24:47.310Z,101289.81
2022-08-07T11:28:17.758Z,101298.44
2022-08-07T11:31:48.359Z,101270.22
2022-08-07T11:35:25.349Z,101284.75
2022-08-07T11:39:07.413Z,101296.84
2022-08-07T11:42:40.286Z,101294.00
2022-08-07T11:46:27.198Z,101296.28
2022-08-07T11:50:32.225Z,101290.47
2022-08-07T11:54:01.201Z,101302.47
2022-08-07T11:57:59.757Z,101297.13
2022-08-07T12:02:00.774Z,101301.63
2022-08-07T12:05:41.153Z,101300.63
2022-08-07T12:09:16.092Z,101298.09
2022-08-07T12:12:44.167Z,101300.47
2022-08-07T12:16:12.976Z,101310.88
2022-08-07T12:20:03.964Z,101302.03
2022-08-07T12:24:07.558Z,101296.50
2022-08-07T12:28:08.532Z,101304.22
2022-08-07T12:31:53.369Z,101303.38
2022-08-07T12:35:14.804Z,101289.47
2022-08-07T12:38:42.877Z,101287.75
2022-08-07T12:42:12.191Z,101291.41
2022-08-07T12:45:52.355Z,101284.56
2022-08-07T12:49:25.832Z,101286.53
2022-08-07T12:53:17.659Z,101283.28
2022-08-07T12:56:51.489Z,101281.03
2022-08-07T13:00:31.210Z,101291.09
2022-08-07T13:04:05.924Z,101279.91
2022-08-07T13:08:13.876Z,101267.59
2022-08-07T13:12:00.911Z,101280.97
2022-08-07T13:15:38.322Z,101275.94
2022-08-07T13:19:22.032Z,101273.00
2022-08-07T13:23:59.731Z,101255.13
2022-08-07T13:26:59.126Z,101276.63
2022-08-07T13:30:41.335Z,101276.31
2022-08-07T13:34:33.578Z,101262.84
2022-08-07T13:38:03.811Z,101255.44
2022-08-07T13:41:33.428Z,101268.78
2022-08-07T13:46:06.156Z,101266.66
2022-08-07T13:48:58.340Z,101284.38
2022-08-07T13:52:32.147Z,101275.78
2022-08-07T13:55:59.803Z,101282.53
2022-08-07T13:59:27.254Z,101284.38
2022-08-07T14:02:54.283Z,101272.28
2022-08-07T14:06:17.587Z,101272.91
2022-08-07T14:10:02.928Z,101283.81
2022-08-07T14:13:33.165Z,101268.28
2022-08-07T14:17:00.444Z,101274.94
2022-08-07T14:20:54.456Z,101268.91
2022-08-07T14:24:23.564Z,101277.34
2022-08-07T14:28:10.505Z,101282.41
2022-08-07T14:31:42.549Z,101267.31
2022-08-07T14:35:06.794Z,101272.66
2022-08-07T14:38:34.940Z,101274.94
2022-08-07T14:42:20.330Z,101279.19
2022-08-07T14:45:46.657Z,101281.41
2022-08-07T14:49:55.603Z,101278.56
2022-08-07T14:52:57.061Z,101282.53
2022-08-07T14:56:33.366Z,101281.84
2022-08-07T15:00:03.659Z,101282.78
2022-08-07T15:03:52.358Z,101275.06
2022-08-07T15:07:21.646Z,101280.94
2022-08-07T15:10:58.535Z,101284.31
2022-08-07T15:14:25.394Z,101274.88
2022-08-07T15:17:58.161Z,101257.91
2022-08-07T15:25:17.243Z,101283.22
2022-08-07T15:36:12.218Z,101280.16
2022-08-07T15:39:56.328Z,101281.06
2022-08-07T15:54:40.781Z,101293.44
2022-08-07T15:58:05.098Z,101301.19
2022-08-07T16:01:39.335Z,101296.72
2022-08-07T16:05:15.136Z,101293.94
2022-08-07T16:08:43.058Z,101295.94
2022-08-07T16:12:28.690Z,101294.13
2022-08-07T16:16:06.555Z,101296.47
2022-08-07T16:20:05.416Z,101296.00
2022-08-07T16:23:58.324Z,101277.34
2022-08-07T16:27:40.588Z,101287.25
2022-08-07T16:31:57.264Z,101291.50
2022-08-07T16:35:58.933Z,101288.81
2022-08-07T16:39:33.600Z,101289.75
2022-08-07T16:43:11.244Z,101291.28
2022-08-07T16:47:14.376Z,101292.66
2022-08-07T16:51:07.342Z,101274.03
2022-08-07T16:54:54.855Z,101297.41
2022-08-07T16:58:30.201Z,101285.75
2022-08-07T17:02:09.052Z,101294.06
2022-08-07T17:06:18.944Z,101278.41
2022-08-07T17:10:07.382Z,101290.13
2022-08-07T17:13:40.321Z,101290.38
2022-08-07T17:17:46.165Z,101285.03
2022-08-07T17:21:18.477Z,101290.13
2022-08-07T17:25:05.171Z,101306.44
2022-08-07T17:28:38.278Z,101292.19
2022-08-07T17:32:30.291Z,101300.50
2022-08-07T17:36:00.105Z,101305.09
2022-08-07T17:39:58.384Z,101304.91
2022-08-07T17:43:20.304Z,101301.25
2022-08-07T17:47:08.268Z,101303.88
2022-08-07T17:50:54.466Z,101304.72
2022-08-07T17:54:29.703Z,101297.75
2022-08-07T17:58:09.807Z,101284.72
2022-08-07T18:01:58.781Z,101317.84
2022-08-07T18:06:03.535Z,101315.97
2022-08-07T18:10:04.354Z,101295.53
2022-08-07T18:13:15.284Z,101319.09
2022-08-07T18:16:58.370Z,101315.50
2022-08-07T18:21:03.742Z,101319.34
2022-08-07T18:24:33.075Z,101301.44
2022-08-07T18:28:33.916Z,101321.06
2022-08-07T18:32:16.844Z,101319.06
2022-08-07T18:35:57.832Z,101316.22
2022-08-07T18:40:08.173Z,101323.97
2022-08-07T18:43:14.928Z,101320.34
2022-08-07T18:46:46.233Z,101306.44
2022-08-07T18:50:38.116Z,101314.59
2022-08-07T18:54:30.931Z,101325.00
2022-08-07T18:58:22.360Z,101327.84
2022-08-07T19:02:32.402Z,101336.00
2022-08-07T19:06:03.718Z,101336.72
2022-08-07T19:09:57.400Z,101328.63
2022-08-07T19:13:21.529Z,101322.19
2022-08-07T19:17:05.483Z,101323.50
2022-08-07T19:20:39.970Z,101329.78
2022-08-07T19:24:30.683Z,101340.56
2022-08-07T19:28:57.981Z,101340.19
2022-08-07T19:32:07.897Z,101346.44
2022-08-07T19:35:33.180Z,101347.97
2022-08-07T19:38:59.641Z,101343.41
2022-08-07T19:42:25.104Z,101351.34
2022-08-07T19:46:06.266Z,101350.13
2022-08-07T19:49:57.722Z,101355.41
2022-08-07T19:54:30.946Z,101359.88
2022-08-07T19:58:02.755Z,101360.88
2022-08-07T20:00:53.882Z,101377.69
2022-08-07T20:04:31.834Z,101372.13
2022-08-07T20:08:02.183Z,101370.63
2022-08-07T20:12:00.997Z,101384.59
2022-08-07T20:15:18.917Z,101378.28
2022-08-07T20:18:48.503Z,101389.06
2022-08-07T20:22:13.182Z,101383.75
2022-08-07T20:25:40.446Z,101393.56
2022-08-07T20:29:16.999Z,101382.91
2022-08-07T20:32:58.878Z,101394.31
2022-08-07T20:36:26.717Z,101388.28
2022-08-07T20:40:02.539Z,101382.63
2022-08-07T20:43:28.284Z,101384.50
2022-08-07T20:47:05.427Z,101392.59
2022-08-07T20:50:32.439Z,101399.78
2022-08-07T20:54:08.618Z,101365.38
2022-08-07T20:57:47.716Z,101398.72
2022-08-07T21:01:29.806Z,101393.16
2022-08-07T21:05:16.273Z,101393.69
2022-08-07T21:08:46.658Z,101391.44
2022-08-07T21:12:15.201Z,101396.06
2022-08-07T21:16:00.576Z,101398.97
2022-08-07T21:19:32.014Z,101396.59
2022-08-07T21:23:22.928Z,101386.22
2022-08-07T21:26:57.532Z,101384.69
2022-08-07T21:30:25.185Z,101379.50
2022-08-07T21:34:04.661Z,101385.63
2022-08-07T21:37:58.008Z,101380.47
2022-08-07T21:41:20.686Z,101385.03
2022-08-07T21:44:51.250Z,101384.53
2022-08-07T21:48:28.743Z,101380.38
2022-08-07T21:52:11.493Z,101374.63
2022-08-07T21:55:44.210Z,101342.41
2022-08-07T21:59:18.476Z,101357.03
2022-08-07T22:02:47.044Z,101372.34
2022-08-07T22:06:30.323Z,101376.72
2022-08-07T22:09:58.614Z,101378.13
2022-08-07T22:13:51.037Z,101386.59
2022-08-07T22:17:10.480Z,101372.41
2022-08-07T22:20:43.213Z,101387.81
2022-08-07T22:24:13.439Z,101384.59
2022-08-07T22:28:07.871Z,101390.72
2022-08-07T22:31:59.440Z,101395.31
2022-08-07T22:35:12.386Z,101394.09
2022-08-07T22:38:48.129Z,101386.53
2022-08-07T22:42:18.906Z,101383.16
2022-08-07T22:47:02.696Z,101395.28
2022-08-07T22:50:37.792Z,101392.06
2022-08-07T22:54:16.141Z,101386.28
2022-08-07T22:58:04.164Z,101400.03
2022-08-07T23:02:02.245Z,101394.03
2022-08-07T23:06:10.073Z,101378.63
2022-08-07T23:10:06.536Z,101393.31
2022-08-07T23:13:48.682Z,101391.72
2022-08-07T23:17:41.701Z,101394.44
2022-08-07T23:21:29.974Z,101386.47
2022-08-07T23:24:57.315Z,101397.69
2022-08-07T23:28:44.296Z,101391.56
2022-08-07T23:34:19.879Z,101388.16
2022-08-07T23:36:22.961Z,101392.56
2022-08-07T23:40:07.574Z,101385.84
2022-08-07T23:43:56.485Z,101395.44
2022-08-07T23:47:46.720Z,101398.19
2022-08-07T23:52:58.510Z,101387.09
2022-08-07T23:55:04.704Z,101385.69
2022-08-07T23:58:45.765Z,101404.63
